sensor_id;sensor_type;location;lat;lon;timestamp;pressure;altitude;pressure_sealevel;temperature;humidity
21111;BME280;10713;51.912;4.494;2023-11-22T00:02:24;102850.69;;;6.74;100.00
21111;BME280;10713;51.912;4.494;2023-11-22T00:04:53;102854.16;;;6.72;100.00
21111;BME280;10713;51.912;4.494;2023-11-22T00:07:18;102850.66;;;6.71;100.00
21111;BME280;10713;51.912;4.494;2023-11-22T00:09:44;102839.28;;;6.68;100.00
21111;BME280;10713;51.912;4.494;2023-11-22T00:12:11;102837.44;;;6.59;100.00
21111;BME280;10713;51.912;4.494;2023-11-22T00:14:36;102843.53;;;6.57;100.00
21111;BME280;10713;51.912;4.494;2023-11-22T00:17:02;102849.63;;;6.52;100.00
21111;BME280;10713;51.912;4.494;2023-11-22T00:19:27;102849.56;;;6.46;100.00
21111;BME280;10713;51.912;4.494;2023-11-22T00:21:53;102862.66;;;6.42;100.00
21111;BME280;10713;51.912;4.494;2023-11-22T00:24:18;102870.50;;;6.39;100.00
21111;BME280;10713;51.912;4.494;2023-11-22T00:26:43;102873.06;;;6.34;100.00
21111;BME280;10713;51.912;4.494;2023-11-22T00:29:09;102873.09;;;6.40;100.00
21111;BME280;10713;51.912;4.494;2023-11-22T00:31:34;102875.88;;;6.52;100.00
21111;BME280;10713;51.912;4.494;2023-11-22T00:33:59;102886.34;;;6.51;100.00
21111;BME280;10713;51.912;4.494;2023-11-22T00:36:25;102897.00;;;6.68;100.00
21111;BME280;10713;51.912;4.494;2023-11-22T00:38:50;102891.84;;;6.77;100.00
21111;BME280;10713;51.912;4.494;2023-11-22T00:41:15;102886.47;;;6.66;100.00
21111;BME280;10713;51.912;4.494;2023-11-22T00:43:41;102892.59;;;6.62;100.00
21111;BME280;10713;51.912;4.494;2023-11-22T00:46:06;102896.13;;;6.67;100.00
21111;BME280;10713;51.912;4.494;2023-11-22T00:48:32;102885.56;;;6.60;100.00
21111;BME280;10713;51.912;4.494;2023-11-22T00:50:57;102896.00;;;6.55;100.00
21111;BME280;10713;51.912;4.494;2023-11-22T00:53:23;102887.16;;;6.45;100.00
21111;BME280;10713;51.912;4.494;2023-11-22T00:55:48;102880.06;;;6.37;100.00
21111;BME280;10713;51.912;4.494;2023-11-22T00:58:14;102882.63;;;6.30;100.00
21111;BME280;10713;51.912;4.494;2023-11-22T01:00:39;102890.44;;;6.24;100.00
21111;BME280;10713;51.912;4.494;2023-11-22T01:03:05;102891.22;;;6.17;100.00
21111;BME280;10713;51.912;4.494;2023-11-22T01:05:30;102900.97;;;6.27;100.00
21111;BME280;10713;51.912;4.494;2023-11-22T01:07:56;102907.25;;;6.43;100.00
21111;BME280;10713;51.912;4.494;2023-11-22T01:10:21;102904.56;;;6.37;100.00
21111;BME280;10713;51.912;4.494;2023-11-22T01:12:47;102914.06;;;6.29;100.00
21111;BME280;10713;51.912;4.494;2023-11-22T01:15:13;102906.16;;;6.23;100.00
21111;BME280;10713;51.912;4.494;2023-11-22T01:17:39;102914.94;;;6.29;100.00
21111;BME280;10713;51.912;4.494;2023-11-22T01:20:05;102925.53;;;6.37;100.00
21111;BME280;10713;51.912;4.494;2023-11-22T01:22:31;102935.09;;;6.30;100.00
21111;BME280;10713;51.912;4.494;2023-11-22T01:24:56;102938.53;;;6.26;100.00
21111;BME280;10713;51.912;4.494;2023-11-22T01:27:21;102941.28;;;6.37;100.00
21111;BME280;10713;51.912;4.494;2023-11-22T01:29:47;102953.81;;;6.63;100.00
21111;BME280;10713;51.912;4.494;2023-11-22T01:32:12;102946.09;;;6.76;100.00
21111;BME280;10713;51.912;4.494;2023-11-22T01:34:38;102934.72;;;6.77;100.00
21111;BME280;10713;51.912;4.494;2023-11-22T01:37:03;102936.28;;;6.60;100.00
21111;BME280;10713;51.912;4.494;2023-11-22T01:39:29;102922.13;;;6.43;100.00
21111;BME280;10713;51.912;4.494;2023-11-22T01:41:54;102914.91;;;6.25;100.00
21111;BME280;10713;51.912;4.494;2023-11-22T01:44:21;102929.00;;;6.35;100.00
21111;BME280;10713;51.912;4.494;2023-11-22T01:46:46;102939.84;;;6.65;100.00
21111;BME280;10713;51.912;4.494;2023-11-22T01:49:12;102941.75;;;6.79;100.00
21111;BME280;10713;51.912;4.494;2023-11-22T01:51:39;102950.56;;;6.85;100.00
21111;BME280;10713;51.912;4.494;2023-11-22T01:54:06;102949.56;;;6.74;100.00
21111;BME280;10713;51.912;4.494;2023-11-22T01:56:35;102950.50;;;6.81;100.00
21111;BME280;10713;51.912;4.494;2023-11-22T01:59:01;102949.72;;;6.91;100.00
21111;BME280;10713;51.912;4.494;2023-11-22T02:01:26;102948.09;;;7.02;100.00
21111;BME280;10713;51.912;4.494;2023-11-22T02:03:52;102949.84;;;7.02;100.00
21111;BME280;10713;51.912;4.494;2023-11-22T02:06:19;102944.75;;;7.18;100.00
21111;BME280;10713;51.912;4.494;2023-11-22T02:08:47;102938.50;;;7.06;100.00
21111;BME280;10713;51.912;4.494;2023-11-22T02:11:12;102942.84;;;7.02;100.00
21111;BME280;10713;51.912;4.494;2023-11-22T02:13:38;102936.66;;;6.97;100.00
21111;BME280;10713;51.912;4.494;2023-11-22T02:16:03;102946.41;;;7.10;100.00
21111;BME280;10713;51.912;4.494;2023-11-22T02:18:29;102940.38;;;7.19;100.00
21111;BME280;10713;51.912;4.494;2023-11-22T02:20:55;102938.56;;;7.15;100.00
21111;BME280;10713;51.912;4.494;2023-11-22T02:23:21;102933.09;;;6.87;100.00
21111;BME280;10713;51.912;4.494;2023-11-22T02:25:47;102924.06;;;6.64;100.00
21111;BME280;10713;51.912;4.494;2023-11-22T02:28:12;102915.19;;;6.48;100.00
21111;BME280;10713;51.912;4.494;2023-11-22T02:30:37;102917.63;;;6.34;100.00
21111;BME280;10713;51.912;4.494;2023-11-22T02:33:03;102927.09;;;6.18;100.00
21111;BME280;10713;51.912;4.494;2023-11-22T02:35:30;102919.91;;;6.05;100.00
21111;BME280;10713;51.912;4.494;2023-11-22T02:37:57;102924.22;;;6.00;100.00
21111;BME280;10713;51.912;4.494;2023-11-22T02:40:22;102925.94;;;5.96;100.00
21111;BME280;10713;51.912;4.494;2023-11-22T02:42:49;102930.25;;;5.94;100.00
21111;BME280;10713;51.912;4.494;2023-11-22T02:45:19;102924.06;;;5.91;100.00
21111;BME280;10713;51.912;4.494;2023-11-22T02:47:45;102921.38;;;5.86;100.00
21111;BME280;10713;51.912;4.494;2023-11-22T02:50:12;102928.34;;;5.84;100.00
21111;BME280;10713;51.912;4.494;2023-11-22T02:52:38;102930.09;;;5.85;100.00
21111;BME280;10713;51.912;4.494;2023-11-22T02:55:04;102935.34;;;5.86;100.00
21111;BME280;10713;51.912;4.494;2023-11-22T02:57:32;102932.72;;;5.86;100.00
21111;BME280;10713;51.912;4.494;2023-11-22T02:59:58;102929.25;;;5.86;100.00
21111;BME280;10713;51.912;4.494;2023-11-22T03:02:23;102940.50;;;5.80;100.00
21111;BME280;10713;51.912;4.494;2023-11-22T03:04:49;102930.88;;;5.76;100.00
21111;BME280;10713;51.912;4.494;2023-11-22T03:07:15;102929.94;;;5.74;100.00
21111;BME280;10713;51.912;4.494;2023-11-22T03:09:40;102929.03;;;5.72;100.00
21111;BME280;10713;51.912;4.494;2023-11-22T03:12:06;102924.66;;;5.70;100.00
21111;BME280;10713;51.912;4.494;2023-11-22T03:14:34;102937.78;;;5.71;100.00
21111;BME280;10713;51.912;4.494;2023-11-22T03:17:00;102931.69;;;5.74;100.00
21111;BME280;10713;51.912;4.494;2023-11-22T03:19:25;102945.72;;;5.76;100.00
21111;BME280;10713;51.912;4.494;2023-11-22T03:21:50;102945.66;;;5.73;100.00
21111;BME280;10713;51.912;4.494;2023-11-22T03:24:16;102944.81;;;5.74;100.00
21111;BME280;10713;51.912;4.494;2023-11-22T03:26:41;102959.66;;;5.73;100.00
21111;BME280;10713;51.912;4.494;2023-11-22T03:29:07;102965.75;;;5.74;100.00
21111;BME280;10713;51.912;4.494;2023-11-22T03:31:32;102971.88;;;5.73;100.00
21111;BME280;10713;51.912;4.494;2023-11-22T03:33:58;102976.22;;;5.72;100.00
21111;BME280;10713;51.912;4.494;2023-11-22T03:36:23;102975.38;;;5.75;100.00
21111;BME280;10713;51.912;4.494;2023-11-22T03:38:49;102982.38;;;5.74;100.00
21111;BME280;10713;51.912;4.494;2023-11-22T03:41:15;102993.84;;;5.82;100.00
21111;BME280;10713;51.912;4.494;2023-11-22T03:43:42;102992.13;;;5.84;100.00
21111;BME280;10713;51.912;4.494;2023-11-22T03:46:08;103003.59;;;5.91;100.00
21111;BME280;10713;51.912;4.494;2023-11-22T03:48:33;103007.16;;;5.93;100.00
21111;BME280;10713;51.912;4.494;2023-11-22T03:50:58;103007.16;;;5.95;100.00
21111;BME280;10713;51.912;4.494;2023-11-22T03:53:24;103013.31;;;5.95;100.00
21111;BME280;10713;51.912;4.494;2023-11-22T03:55:49;103015.03;;;5.95;100.00
21111;BME280;10713;51.912;4.494;2023-11-22T03:58:15;103015.94;;;5.95;100.00
21111;BME280;10713;51.912;4.494;2023-11-22T04:00:41;103020.31;;;5.96;100.00
21111;BME280;10713;51.912;4.494;2023-11-22T04:03:06;103019.44;;;5.97;100.00
21111;BME280;10713;51.912;4.494;2023-11-22T04:05:32;103029.97;;;6.00;100.00
21111;BME280;10713;51.912;4.494;2023-11-22T04:07:57;103022.97;;;5.99;100.00
21111;BME280;10713;51.912;4.494;2023-11-22T04:10:23;103026.47;;;5.98;100.00
21111;BME280;10713;51.912;4.494;2023-11-22T04:12:49;103029.91;;;5.96;100.00
21111;BME280;10713;51.912;4.494;2023-11-22T04:15:14;103028.13;;;5.95;100.00
21111;BME280;10713;51.912;4.494;2023-11-22T04:17:41;103036.00;;;5.95;100.00
21111;BME280;10713;51.912;4.494;2023-11-22T04:20:07;103036.00;;;5.93;100.00
21111;BME280;10713;51.912;4.494;2023-11-22T04:22:34;103038.50;;;5.88;100.00
21111;BME280;10713;51.912;4.494;2023-11-22T04:25:00;103039.38;;;5.87;100.00
21111;BME280;10713;51.912;4.494;2023-11-22T04:27:26;103046.31;;;5.85;100.00
21111;BME280;10713;51.912;4.494;2023-11-22T04:29:51;103043.66;;;5.82;100.00
21111;BME280;10713;51.912;4.494;2023-11-22T04:32:17;103048.84;;;5.79;100.00
21111;BME280;10713;51.912;4.494;2023-11-22T04:34:42;103046.19;;;5.76;100.00
21111;BME280;10713;51.912;4.494;2023-11-22T04:37:07;103051.38;;;5.73;100.00
21111;BME280;10713;51.912;4.494;2023-11-22T04:39:33;103056.56;;;5.70;100.00
21111;BME280;10713;51.912;4.494;2023-11-22T04:41:58;103052.97;;;5.65;100.00
21111;BME280;10713;51.912;4.494;2023-11-22T04:44:23;103053.84;;;5.64;100.00
21111;BME280;10713;51.912;4.494;2023-11-22T04:46:49;103050.31;;;5.62;100.00
21111;BME280;10713;51.912;4.494;2023-11-22T04:49:14;103045.94;;;5.61;100.00
21111;BME280;10713;51.912;4.494;2023-11-22T04:51:40;103045.84;;;5.58;100.00
21111;BME280;10713;51.912;4.494;2023-11-22T04:54:05;103030.22;;;5.61;100.00
21111;BME280;10713;51.912;4.494;2023-11-22T04:56:30;103034.59;;;5.62;100.00
21111;BME280;10713;51.912;4.494;2023-11-22T04:58:56;103024.03;;;5.57;100.00
21111;BME280;10713;51.912;4.494;2023-11-22T05:01:22;103030.13;;;5.56;100.00
21111;BME280;10713;51.912;4.494;2023-11-22T05:03:47;103030.19;;;5.59;100.00
21111;BME280;10713;51.912;4.494;2023-11-22T05:06:12;103044.16;;;5.60;100.00
21111;BME280;10713;51.912;4.494;2023-11-22T05:08:38;103043.25;;;5.58;100.00
21111;BME280;10713;51.912;4.494;2023-11-22T05:11:03;103040.63;;;5.58;100.00
21111;BME280;10713;51.912;4.494;2023-11-22T05:13:29;103040.63;;;5.58;100.00
21111;BME280;10713;51.912;4.494;2023-11-22T05:15:55;103049.31;;;5.54;100.00
21111;BME280;10713;51.912;4.494;2023-11-22T05:18:20;103046.72;;;5.55;100.00
21111;BME280;10713;51.912;4.494;2023-11-22T05:20:46;103048.44;;;5.55;100.00
21111;BME280;10713;51.912;4.494;2023-11-22T05:23:13;103051.09;;;5.58;100.00
21111;BME280;10713;51.912;4.494;2023-11-22T05:25:39;103046.78;;;5.60;100.00
21111;BME280;10713;51.912;4.494;2023-11-22T05:28:04;103042.38;;;5.57;100.00
21111;BME280;10713;51.912;4.494;2023-11-22T05:30:30;103030.13;;;5.56;100.00
21111;BME280;10713;51.912;4.494;2023-11-22T05:32:56;103042.41;;;5.59;100.00
21111;BME280;10713;51.912;4.494;2023-11-22T05:35:22;103031.00;;;5.57;100.00
21111;BME280;10713;51.912;4.494;2023-11-22T05:37:47;103018.75;;;5.54;100.00
21111;BME280;10713;51.912;4.494;2023-11-22T05:40:13;103014.38;;;5.55;100.00
21111;BME280;10713;51.912;4.494;2023-11-22T05:42:39;103012.66;;;5.55;100.00
21111;BME280;10713;51.912;4.494;2023-11-22T05:45:05;103016.09;;;5.53;100.00
21111;BME280;10713;51.912;4.494;2023-11-22T05:47:31;103023.97;;;5.53;100.00
21111;BME280;10713;51.912;4.494;2023-11-22T05:49:56;103026.53;;;5.50;100.00
21111;BME280;10713;51.912;4.494;2023-11-22T05:52:22;103031.63;;;5.42;100.00
21111;BME280;10713;51.912;4.494;2023-11-22T05:54:48;103036.97;;;5.47;100.00
21111;BME280;10713;51.912;4.494;2023-11-22T05:57:14;103029.16;;;5.50;100.00
21111;BME280;10713;51.912;4.494;2023-11-22T05:59:40;103024.84;;;5.55;100.00
21111;BME280;10713;51.912;4.494;2023-11-22T06:02:05;103031.97;;;5.62;100.00
21111;BME280;10713;51.912;4.494;2023-11-22T06:04:31;103024.06;;;5.59;100.00
21111;BME280;10713;51.912;4.494;2023-11-22T06:06:56;103033.63;;;5.57;100.00
21111;BME280;10713;51.912;4.494;2023-11-22T06:09:21;103052.88;;;5.59;100.00
21111;BME280;10713;51.912;4.494;2023-11-22T06:11:48;103058.13;;;5.59;100.00
21111;BME280;10713;51.912;4.494;2023-11-22T06:14:14;103051.91;;;5.52;100.00
21111;BME280;10713;51.912;4.494;2023-11-22T06:16:39;103072.00;;;5.55;100.00
21111;BME280;10713;51.912;4.494;2023-11-22T06:19:04;103071.09;;;5.51;100.00
21111;BME280;10713;51.912;4.494;2023-11-22T06:21:30;103084.94;;;5.46;100.00
21111;BME280;10713;51.912;4.494;2023-11-22T06:23:55;103086.66;;;5.43;100.00
21111;BME280;10713;51.912;4.494;2023-11-22T06:26:23;103084.91;;;5.41;100.00
21111;BME280;10713;51.912;4.494;2023-11-22T06:28:49;103096.47;;;5.54;100.00
21111;BME280;10713;51.912;4.494;2023-11-22T06:31:15;103079.75;;;5.47;100.00
21111;BME280;10713;51.912;4.494;2023-11-22T06:33:40;103061.31;;;5.42;100.00
21111;BME280;10713;51.912;4.494;2023-11-22T06:36:05;103066.72;;;5.52;100.00
21111;BME280;10713;51.912;4.494;2023-11-22T06:38:31;103062.25;;;5.45;100.00
21111;BME280;10713;51.912;4.494;2023-11-22T06:40:56;103056.22;;;5.50;100.00
21111;BME280;10713;51.912;4.494;2023-11-22T06:43:21;103062.44;;;5.55;100.00
21111;BME280;10713;51.912;4.494;2023-11-22T06:45:47;103056.09;;;5.41;100.00
21111;BME280;10713;51.912;4.494;2023-11-22T06:48:13;103047.16;;;5.31;100.00
21111;BME280;10713;51.912;4.494;2023-11-22T06:50:38;103047.16;;;5.30;100.00
21111;BME280;10713;51.912;4.494;2023-11-22T06:53:04;103034.13;;;5.34;100.00
21111;BME280;10713;51.912;4.494;2023-11-22T06:55:31;103039.78;;;5.59;100.00
21111;BME280;10713;51.912;4.494;2023-11-22T06:57:58;103046.25;;;5.81;100.00
21111;BME280;10713;51.912;4.494;2023-11-22T07:00:23;103044.31;;;5.69;100.00
21111;BME280;10713;51.912;4.494;2023-11-22T07:02:48;103046.72;;;5.57;100.00
21111;BME280;10713;51.912;4.494;2023-11-22T07:05:14;103042.25;;;5.50;100.00
21111;BME280;10713;51.912;4.494;2023-11-22T07:07:39;103051.97;;;5.57;100.00
21111;BME280;10713;51.912;4.494;2023-11-22T07:10:06;103071.22;;;5.59;100.00
21111;BME280;10713;51.912;4.494;2023-11-22T07:12:33;103080.06;;;5.65;100.00
21111;BME280;10713;51.912;4.494;2023-11-22T07:14:59;103086.56;;;5.89;100.00
21111;BME280;10713;51.912;4.494;2023-11-22T07:17:25;103094.81;;;6.12;100.00
21111;BME280;10713;51.912;4.494;2023-11-22T07:19:52;103110.72;;;6.23;100.00
21111;BME280;10713;51.912;4.494;2023-11-22T07:22:18;103114.50;;;6.43;100.00
21111;BME280;10713;51.912;4.494;2023-11-22T07:24:48;103097.41;;;6.71;100.00
21111;BME280;10713;51.912;4.494;2023-11-22T07:27:17;103090.47;;;6.76;100.00
21111;BME280;10713;51.912;4.494;2023-11-22T07:29:43;103077.09;;;6.57;100.00
21111;BME280;10713;51.912;4.494;2023-11-22T07:32:09;103082.97;;;6.39;100.00
21111;BME280;10713;51.912;4.494;2023-11-22T07:34:35;103071.34;;;6.20;100.00
21111;BME280;10713;51.912;4.494;2023-11-22T07:37:01;103074.56;;;6.03;100.00
21111;BME280;10713;51.912;4.494;2023-11-22T07:39:27;103083.06;;;5.88;100.00
21111;BME280;10713;51.912;4.494;2023-11-22T07:41:56;103097.75;;;5.79;100.00
21111;BME280;10713;51.912;4.494;2023-11-22T07:44:24;103106.47;;;5.78;100.00
21111;BME280;10713;51.912;4.494;2023-11-22T07:46:50;103115.28;;;5.81;100.00
21111;BME280;10713;51.912;4.494;2023-11-22T07:49:16;103119.75;;;5.88;100.00
21111;BME280;10713;51.912;4.494;2023-11-22T07:51:44;103124.16;;;5.91;100.00
21111;BME280;10713;51.912;4.494;2023-11-22T07:54:10;103126.84;;;5.93;100.00
21111;BME280;10713;51.912;4.494;2023-11-22T07:56:41;103129.69;;;6.06;100.00
21111;BME280;10713;51.912;4.494;2023-11-22T07:59:08;103135.94;;;6.15;100.00
21111;BME280;10713;51.912;4.494;2023-11-22T08:01:33;103139.53;;;6.20;100.00
21111;BME280;10713;51.912;4.494;2023-11-22T08:03:59;103134.41;;;6.27;100.00
21111;BME280;10713;51.912;4.494;2023-11-22T08:06:24;103130.72;;;6.16;100.00
21111;BME280;10713;51.912;4.494;2023-11-22T08:08:51;103133.19;;;6.05;100.00
21111;BME280;10713;51.912;4.494;2023-11-22T08:11:18;103138.50;;;6.12;100.00
21111;BME280;10713;51.912;4.494;2023-11-22T08:13:44;103144.69;;;6.15;100.00
21111;BME280;10713;51.912;4.494;2023-11-22T08:16:10;103131.78;;;6.27;100.00
21111;BME280;10713;51.912;4.494;2023-11-22T08:18:40;103133.69;;;6.39;100.00
21111;BME280;10713;51.912;4.494;2023-11-22T08:21:08;103140.19;;;6.64;100.00
21111;BME280;10713;51.912;4.494;2023-11-22T08:23:33;103144.88;;;6.88;100.00
21111;BME280;10713;51.912;4.494;2023-11-22T08:26:01;103141.53;;;7.02;100.00
21111;BME280;10713;51.912;4.494;2023-11-22T08:28:27;103141.06;;;7.36;100.00
21111;BME280;10713;51.912;4.494;2023-11-22T08:30:54;103145.03;;;7.86;100.00
21111;BME280;10713;51.912;4.494;2023-11-22T08:33:19;103141.75;;;8.11;100.00
21111;BME280;10713;51.912;4.494;2023-11-22T08:35:45;103132.19;;;8.21;100.00
21111;BME280;10713;51.912;4.494;2023-11-22T08:38:15;103149.81;;;8.34;100.00
21111;BME280;10713;51.912;4.494;2023-11-22T08:40:41;103137.53;;;8.33;100.00
21111;BME280;10713;51.912;4.494;2023-11-22T08:43:07;103138.47;;;8.40;100.00
21111;BME280;10713;51.912;4.494;2023-11-22T08:45:32;103139.50;;;8.64;100.00
21111;BME280;10713;51.912;4.494;2023-11-22T08:47:58;103133.50;;;8.91;100.00
21111;BME280;10713;51.912;4.494;2023-11-22T08:50:24;103120.31;;;8.95;100.00
21111;BME280;10713;51.912;4.494;2023-11-22T08:52:49;103127.31;;;8.89;100.00
21111;BME280;10713;51.912;4.494;2023-11-22T08:55:18;103114.16;;;8.89;100.00
21111;BME280;10713;51.912;4.494;2023-11-22T08:57:50;103102.69;;;8.73;100.00
21111;BME280;10713;51.912;4.494;2023-11-22T09:00:16;103118.47;;;8.74;100.00
21111;BME280;10713;51.912;4.494;2023-11-22T09:02:47;103109.69;;;8.65;100.00
21111;BME280;10713;51.912;4.494;2023-11-22T09:05:13;103118.44;;;8.67;100.00
21111;BME280;10713;51.912;4.494;2023-11-22T09:07:39;103102.69;;;8.73;100.00
21111;BME280;10713;51.912;4.494;2023-11-22T09:10:05;103101.84;;;8.82;100.00
21111;BME280;10713;51.912;4.494;2023-11-22T09:12:41;103115.88;;;8.73;100.00
21111;BME280;10713;51.912;4.494;2023-11-22T09:15:07;103125.47;;;8.69;100.00
21111;BME280;10713;51.912;4.494;2023-11-22T09:17:36;103122.00;;;8.73;100.00
21111;BME280;10713;51.912;4.494;2023-11-22T09:20:02;103136.13;;;8.88;100.00
21111;BME280;10713;51.912;4.494;2023-11-22T09:22:28;103128.16;;;8.80;100.00
21111;BME280;10713;51.912;4.494;2023-11-22T09:24:53;103136.09;;;8.85;100.00
21111;BME280;10713;51.912;4.494;2023-11-22T09:27:19;103134.31;;;8.79;100.00
21111;BME280;10713;51.912;4.494;2023-11-22T09:29:45;103131.69;;;8.76;100.00
21111;BME280;10713;51.912;4.494;2023-11-22T09:32:11;103127.28;;;8.78;100.00
21111;BME280;10713;51.912;4.494;2023-11-22T09:34:38;103137.78;;;8.72;100.00
21111;BME280;10713;51.912;4.494;2023-11-22T09:37:03;103135.16;;;8.75;100.00
21111;BME280;10713;51.912;4.494;2023-11-22T09:39:29;103129.06;;;8.79;100.00
21111;BME280;10713;51.912;4.494;2023-11-22T09:41:55;103122.94;;;8.88;100.00
21111;BME280;10713;51.912;4.494;2023-11-22T09:44:20;103125.56;;;8.86;100.00
21111;BME280;10713;51.912;4.494;2023-11-22T09:46:48;103123.81;;;8.88;100.00
21111;BME280;10713;51.912;4.494;2023-11-22T09:49:20;103130.81;;;8.86;100.00
21111;BME280;10713;51.912;4.494;2023-11-22T09:51:48;103123.78;;;8.82;100.00
21111;BME280;10713;51.912;4.494;2023-11-22T09:54:16;103114.09;;;8.72;100.00
21111;BME280;10713;51.912;4.494;2023-11-22T09:56:44;103114.03;;;8.63;100.00
21111;BME280;10713;51.912;4.494;2023-11-22T09:59:18;103120.97;;;8.45;100.00
21111;BME280;10713;51.912;4.494;2023-11-22T10:01:48;103122.75;;;8.51;100.00
21111;BME280;10713;51.912;4.494;2023-11-22T10:04:14;103124.69;;;8.86;100.00
21111;BME280;10713;51.912;4.494;2023-11-22T10:06:39;103116.94;;;9.29;100.00
21111;BME280;10713;51.912;4.494;2023-11-22T10:09:06;103124.03;;;9.59;100.00
21111;BME280;10713;51.912;4.494;2023-11-22T10:11:33;103116.13;;;9.71;100.00
21111;BME280;10713;51.912;4.494;2023-11-22T10:14:01;103105.53;;;9.66;100.00
21111;BME280;10713;51.912;4.494;2023-11-22T10:16:26;103097.66;;;9.68;100.00
21111;BME280;10713;51.912;4.494;2023-11-22T10:18:52;103095.88;;;9.87;100.00
21111;BME280;10713;51.912;4.494;2023-11-22T10:21:28;103077.41;;;10.04;100.00
21111;BME280;10713;51.912;4.494;2023-11-22T10:24:02;103081.81;;;10.02;100.00
21111;BME280;10713;51.912;4.494;2023-11-22T10:26:28;103085.28;;;10.10;100.00
21111;BME280;10713;51.912;4.494;2023-11-22T10:28:54;103079.16;;;10.05;100.00
21111;BME280;10713;51.912;4.494;2023-11-22T10:31:21;103073.88;;;10.06;100.00
21111;BME280;10713;51.912;4.494;2023-11-22T10:33:47;103058.94;;;10.08;100.00
21111;BME280;10713;51.912;4.494;2023-11-22T10:36:13;103054.50;;;10.04;100.00
21111;BME280;10713;51.912;4.494;2023-11-22T10:38:40;103047.50;;;9.97;100.00
21111;BME280;10713;51.912;4.494;2023-11-22T10:41:09;103058.06;;;9.86;100.00
21111;BME280;10713;51.912;4.494;2023-11-22T10:43:35;103047.53;;;9.79;100.00
21111;BME280;10713;51.912;4.494;2023-11-22T10:46:04;103049.28;;;9.49;100.00
21111;BME280;10713;51.912;4.494;2023-11-22T10:48:35;103047.53;;;9.48;100.00
21111;BME280;10713;51.912;4.494;2023-11-22T10:51:02;103050.16;;;9.69;100.00
21111;BME280;10713;51.912;4.494;2023-11-22T10:53:35;103051.03;;;9.84;100.00
21111;BME280;10713;51.912;4.494;2023-11-22T10:56:15;103049.28;;;9.80;100.00
21111;BME280;10713;51.912;4.494;2023-11-22T10:58:51;103042.25;;;9.91;100.00
21111;BME280;10713;51.912;4.494;2023-11-22T11:01:18;103029.88;;;10.11;100.00
21111;BME280;10713;51.912;4.494;2023-11-22T11:03:56;103030.75;;;10.30;100.00
21111;BME280;10713;51.912;4.494;2023-11-22T11:06:28;103018.38;;;10.43;100.00
21111;BME280;10713;51.912;4.494;2023-11-22T11:09:00;103000.78;;;10.42;100.00
21111;BME280;10713;51.912;4.494;2023-11-22T11:11:28;102992.91;;;10.30;100.00
21111;BME280;10713;51.912;4.494;2023-11-22T11:13:54;103001.72;;;10.29;100.00
21111;BME280;10713;51.912;4.494;2023-11-22T11:16:21;103009.59;;;10.38;100.00
21111;BME280;10713;51.912;4.494;2023-11-22T11:18:47;103016.59;;;10.48;100.00
21111;BME280;10713;51.912;4.494;2023-11-22T11:21:15;103021.03;;;10.42;100.00
21111;BME280;10713;51.912;4.494;2023-11-22T11:23:40;103009.59;;;10.26;100.00
21111;BME280;10713;51.912;4.494;2023-11-22T11:26:18;102992.09;;;10.05;100.00
21111;BME280;10713;51.912;4.494;2023-11-22T11:28:45;102998.25;;;10.05;100.00
21111;BME280;10713;51.912;4.494;2023-11-22T11:31:13;102995.63;;;9.99;100.00
21111;BME280;10713;51.912;4.494;2023-11-22T11:36:31;102993.91;;;9.70;100.00
21111;BME280;10713;51.912;4.494;2023-11-22T11:39:01;102989.53;;;9.54;100.00
21111;BME280;10713;51.912;4.494;2023-11-22T11:41:28;102983.38;;;9.52;100.00
21111;BME280;10713;51.912;4.494;2023-11-22T11:43:56;102988.66;;;9.54;100.00
21111;BME280;10713;51.912;4.494;2023-11-22T11:46:22;102988.66;;;9.55;100.00
21111;BME280;10713;51.912;4.494;2023-11-22T11:48:54;102991.28;;;9.57;100.00
21111;BME280;10713;51.912;4.494;2023-11-22T11:51:25;102993.03;;;9.73;100.00
21111;BME280;10713;51.912;4.494;2023-11-22T11:53:51;102990.38;;;9.79;100.00
21111;BME280;10713;51.912;4.494;2023-11-22T11:56:16;102990.38;;;9.93;100.00
21111;BME280;10713;51.912;4.494;2023-11-22T11:58:46;102977.13;;;10.13;100.00
21111;BME280;10713;51.912;4.494;2023-11-22T12:01:13;102973.56;;;10.22;100.00
21111;BME280;10713;51.912;4.494;2023-11-22T12:03:40;102970.00;;;10.35;100.00
21111;BME280;10713;51.912;4.494;2023-11-22T12:06:06;102952.38;;;10.45;100.00
21111;BME280;10713;51.912;4.494;2023-11-22T12:08:32;102948.81;;;10.53;100.00
21111;BME280;10713;51.912;4.494;2023-11-22T12:11:04;102943.53;;;10.52;100.00
21111;BME280;10713;51.912;4.494;2023-11-22T12:13:32;102930.34;;;10.50;100.00
21111;BME280;10713;51.912;4.494;2023-11-22T12:15:58;102939.16;;;10.43;100.00
21111;BME280;10713;51.912;4.494;2023-11-22T12:18:23;102928.66;;;10.23;100.00
21111;BME280;10713;51.912;4.494;2023-11-22T12:20:56;102938.41;;;10.04;100.00
21111;BME280;10713;51.912;4.494;2023-11-22T12:23:23;102926.97;;;10.08;100.00
21111;BME280;10713;51.912;4.494;2023-11-22T12:25:53;102934.03;;;10.08;100.00
21111;BME280;10713;51.912;4.494;2023-11-22T12:28:24;102922.63;;;10.00;100.00
21111;BME280;10713;51.912;4.494;2023-11-22T12:30:51;102927.00;;;10.01;100.00
21111;BME280;10713;51.912;4.494;2023-11-22T12:33:17;102924.38;;;9.98;100.00
21111;BME280;10713;51.912;4.494;2023-11-22T12:35:45;102924.47;;;9.76;100.00
21111;BME280;10713;51.912;4.494;2023-11-22T12:38:10;102927.94;;;9.78;100.00
21111;BME280;10713;51.912;4.494;2023-11-22T12:40:36;102908.66;;;9.73;100.00
21111;BME280;10713;51.912;4.494;2023-11-22T12:43:02;102892.78;;;9.79;100.00
21111;BME280;10713;51.912;4.494;2023-11-22T12:45:33;102912.09;;;9.92;100.00
21111;BME280;10713;51.912;4.494;2023-11-22T12:48:20;102907.66;;;9.97;100.00